sensor_id;sensor_type;location;lat;lon;timestamp;temperature;humidity
11532;DHT22;5822;51.000;5.874;2023-06-10T00:01:29;21.70;99.90
11532;DHT22;5822;51.000;5.874;2023-06-10T00:03:55;21.70;99.90
11532;DHT22;5822;51.000;5.874;2023-06-10T00:06:21;21.70;99.90
11532;DHT22;5822;51.000;5.874;2023-06-10T00:08:50;21.70;99.90
11532;DHT22;5822;51.000;5.874;2023-06-10T00:11:15;21.60;99.90
11532;DHT22;5822;51.000;5.874;2023-06-10T00:13:41;21.70;99.90
11532;DHT22;5822;51.000;5.874;2023-06-10T00:16:07;21.60;99.90
11532;DHT22;5822;51.000;5.874;2023-06-10T00:18:32;21.60;99.90
11532;DHT22;5822;51.000;5.874;2023-06-10T00:20:58;21.60;99.90
11532;DHT22;5822;51.000;5.874;2023-06-10T00:23:30;21.50;99.90
11532;DHT22;5822;51.000;5.874;2023-06-10T00:26:02;21.50;99.90
11532;DHT22;5822;51.000;5.874;2023-06-10T00:28:28;21.40;99.90
11532;DHT22;5822;51.000;5.874;2023-06-10T00:30:54;21.40;99.90
11532;DHT22;5822;51.000;5.874;2023-06-10T00:33:19;21.40;99.90
11532;DHT22;5822;51.000;5.874;2023-06-10T00:35:45;21.40;99.90
11532;DHT22;5822;51.000;5.874;2023-06-10T00:38:12;21.30;99.90
11532;DHT22;5822;51.000;5.874;2023-06-10T00:40:41;21.30;99.90
11532;DHT22;5822;51.000;5.874;2023-06-10T00:43:07;21.30;99.90
11532;DHT22;5822;51.000;5.874;2023-06-10T00:45:33;21.30;99.90
11532;DHT22;5822;51.000;5.874;2023-06-10T00:48:00;21.30;99.90
11532;DHT22;5822;51.000;5.874;2023-06-10T00:50:26;21.30;99.90
11532;DHT22;5822;51.000;5.874;2023-06-10T00:52:53;21.40;99.90
11532;DHT22;5822;51.000;5.874;2023-06-10T00:55:20;21.30;99.90
11532;DHT22;5822;51.000;5.874;2023-06-10T00:57:46;21.30;99.90
11532;DHT22;5822;51.000;5.874;2023-06-10T01:00:14;21.30;99.90
11532;DHT22;5822;51.000;5.874;2023-06-10T01:02:41;21.30;99.90
11532;DHT22;5822;51.000;5.874;2023-06-10T01:05:08;21.20;99.90
11532;DHT22;5822;51.000;5.874;2023-06-10T01:13:05;21.20;99.90
11532;DHT22;5822;51.000;5.874;2023-06-10T01:15:34;21.10;99.90
11532;DHT22;5822;51.000;5.874;2023-06-10T01:20:28;21.10;99.90
11532;DHT22;5822;51.000;5.874;2023-06-10T01:22:57;21.10;99.90
11532;DHT22;5822;51.000;5.874;2023-06-10T01:25:24;21.10;99.90
11532;DHT22;5822;51.000;5.874;2023-06-10T01:28:17;21.10;99.90
11532;DHT22;5822;51.000;5.874;2023-06-10T01:30:51;21.10;99.90
11532;DHT22;5822;51.000;5.874;2023-06-10T01:33:29;21.10;99.90
11532;DHT22;5822;51.000;5.874;2023-06-10T01:35:57;21.10;99.90
11532;DHT22;5822;51.000;5.874;2023-06-10T01:38:25;21.10;99.90
11532;DHT22;5822;51.000;5.874;2023-06-10T01:40:53;21.10;99.90
11532;DHT22;5822;51.000;5.874;2023-06-10T01:43:20;21.10;99.90
11532;DHT22;5822;51.000;5.874;2023-06-10T01:45:46;21.10;99.90
11532;DHT22;5822;51.000;5.874;2023-06-10T01:48:12;21.10;99.90
11532;DHT22;5822;51.000;5.874;2023-06-10T01:50:38;21.00;99.90
11532;DHT22;5822;51.000;5.874;2023-06-10T01:53:04;21.00;99.90
11532;DHT22;5822;51.000;5.874;2023-06-10T01:55:31;21.00;99.90
11532;DHT22;5822;51.000;5.874;2023-06-10T01:57:56;21.00;99.90
11532;DHT22;5822;51.000;5.874;2023-06-10T02:00:22;20.90;99.90
11532;DHT22;5822;51.000;5.874;2023-06-10T02:02:48;20.90;99.90
11532;DHT22;5822;51.000;5.874;2023-06-10T02:05:14;20.90;99.90
11532;DHT22;5822;51.000;5.874;2023-06-10T02:07:39;20.80;99.90
11532;DHT22;5822;51.000;5.874;2023-06-10T02:10:07;20.80;99.90
11532;DHT22;5822;51.000;5.874;2023-06-10T02:12:32;20.80;99.90
11532;DHT22;5822;51.000;5.874;2023-06-10T02:14:58;20.80;99.90
11532;DHT22;5822;51.000;5.874;2023-06-10T02:17:24;20.70;99.90
11532;DHT22;5822;51.000;5.874;2023-06-10T02:19:49;20.70;99.90
11532;DHT22;5822;51.000;5.874;2023-06-10T02:22:22;20.70;99.90
11532;DHT22;5822;51.000;5.874;2023-06-10T02:24:48;20.70;99.90
11532;DHT22;5822;51.000;5.874;2023-06-10T02:27:15;20.60;99.90
11532;DHT22;5822;51.000;5.874;2023-06-10T02:29:41;20.60;99.90
11532;DHT22;5822;51.000;5.874;2023-06-10T02:32:07;20.60;99.90
11532;DHT22;5822;51.000;5.874;2023-06-10T02:34:33;20.60;99.90
11532;DHT22;5822;51.000;5.874;2023-06-10T02:37:00;20.50;99.90
11532;DHT22;5822;51.000;5.874;2023-06-10T02:39:26;20.50;99.90
11532;DHT22;5822;51.000;5.874;2023-06-10T02:41:51;20.50;99.90
11532;DHT22;5822;51.000;5.874;2023-06-10T02:44:20;20.50;99.90
11532;DHT22;5822;51.000;5.874;2023-06-10T02:46:46;20.50;99.90
11532;DHT22;5822;51.000;5.874;2023-06-10T02:49:12;20.40;99.90
11532;DHT22;5822;51.000;5.874;2023-06-10T02:51:38;20.40;99.90
11532;DHT22;5822;51.000;5.874;2023-06-10T02:54:04;20.40;99.90
11532;DHT22;5822;51.000;5.874;2023-06-10T02:56:30;20.40;99.90
11532;DHT22;5822;51.000;5.874;2023-06-10T02:58:57;20.40;99.90
11532;DHT22;5822;51.000;5.874;2023-06-10T03:01:23;20.40;99.90
11532;DHT22;5822;51.000;5.874;2023-06-10T03:03:48;20.40;99.90
11532;DHT22;5822;51.000;5.874;2023-06-10T03:06:16;20.40;99.90
11532;DHT22;5822;51.000;5.874;2023-06-10T03:08:42;20.40;99.90
11532;DHT22;5822;51.000;5.874;2023-06-10T03:11:08;20.40;99.90
11532;DHT22;5822;51.000;5.874;2023-06-10T03:13:33;20.40;99.90
11532;DHT22;5822;51.000;5.874;2023-06-10T03:15:59;20.40;99.90
11532;DHT22;5822;51.000;5.874;2023-06-10T03:18:28;20.40;99.90
11532;DHT22;5822;51.000;5.874;2023-06-10T03:20:55;20.40;99.90
11532;DHT22;5822;51.000;5.874;2023-06-10T03:23:21;20.40;99.90
11532;DHT22;5822;51.000;5.874;2023-06-10T03:25:47;20.40;99.90
11532;DHT22;5822;51.000;5.874;2023-06-10T03:28:12;20.40;99.90
11532;DHT22;5822;51.000;5.874;2023-06-10T03:30:38;20.40;99.90
11532;DHT22;5822;51.000;5.874;2023-06-10T03:33:03;20.40;99.90
11532;DHT22;5822;51.000;5.874;2023-06-10T03:35:29;20.30;99.90
11532;DHT22;5822;51.000;5.874;2023-06-10T03:37:55;20.30;99.90
11532;DHT22;5822;51.000;5.874;2023-06-10T03:40:21;20.40;99.90
11532;DHT22;5822;51.000;5.874;2023-06-10T03:42:47;20.40;99.90
11532;DHT22;5822;51.000;5.874;2023-06-10T03:45:12;20.40;99.90
11532;DHT22;5822;51.000;5.874;2023-06-10T03:47:38;20.40;99.90
11532;DHT22;5822;51.000;5.874;2023-06-10T03:50:07;20.30;99.90
11532;DHT22;5822;51.000;5.874;2023-06-10T03:52:37;20.30;99.90
11532;DHT22;5822;51.000;5.874;2023-06-10T03:55:03;20.30;99.90
11532;DHT22;5822;51.000;5.874;2023-06-10T03:57:29;20.30;99.90
11532;DHT22;5822;51.000;5.874;2023-06-10T03:59:54;20.20;99.90
11532;DHT22;5822;51.000;5.874;2023-06-10T04:02:21;20.20;99.90
11532;DHT22;5822;51.000;5.874;2023-06-10T04:04:48;20.30;99.90
11532;DHT22;5822;51.000;5.874;2023-06-10T04:07:13;20.30;99.90
11532;DHT22;5822;51.000;5.874;2023-06-10T04:09:40;20.30;99.90
11532;DHT22;5822;51.000;5.874;2023-06-10T04:12:05;20.30;99.90
11532;DHT22;5822;51.000;5.874;2023-06-10T04:14:34;20.30;99.90
11532;DHT22;5822;51.000;5.874;2023-06-10T04:17:01;20.30;99.90
11532;DHT22;5822;51.000;5.874;2023-06-10T04:19:27;20.20;99.90
11532;DHT22;5822;51.000;5.874;2023-06-10T04:21:53;20.20;99.90
11532;DHT22;5822;51.000;5.874;2023-06-10T04:24:19;20.20;99.90
11532;DHT22;5822;51.000;5.874;2023-06-10T04:26:45;20.20;99.90
11532;DHT22;5822;51.000;5.874;2023-06-10T04:29:10;20.30;99.90
11532;DHT22;5822;51.000;5.874;2023-06-10T04:31:36;20.30;99.90
11532;DHT22;5822;51.000;5.874;2023-06-10T04:34:01;20.30;99.90
11532;DHT22;5822;51.000;5.874;2023-06-10T04:36:27;20.30;99.90
11532;DHT22;5822;51.000;5.874;2023-06-10T04:38:54;20.40;99.90
11532;DHT22;5822;51.000;5.874;2023-06-10T04:41:20;20.30;99.90
11532;DHT22;5822;51.000;5.874;2023-06-10T04:43:45;20.40;99.90
11532;DHT22;5822;51.000;5.874;2023-06-10T04:46:11;20.40;99.90
11532;DHT22;5822;51.000;5.874;2023-06-10T04:48:38;20.40;99.90
11532;DHT22;5822;51.000;5.874;2023-06-10T04:51:04;20.40;99.90
11532;DHT22;5822;51.000;5.874;2023-06-10T04:53:30;20.40;99.90
11532;DHT22;5822;51.000;5.874;2023-06-10T04:55:57;20.40;99.90
11532;DHT22;5822;51.000;5.874;2023-06-10T04:58:23;20.40;99.90
11532;DHT22;5822;51.000;5.874;2023-06-10T05:00:49;20.50;99.90
11532;DHT22;5822;51.000;5.874;2023-06-10T05:03:14;20.50;99.90
11532;DHT22;5822;51.000;5.874;2023-06-10T05:05:40;20.50;99.90
11532;DHT22;5822;51.000;5.874;2023-06-10T05:08:06;20.50;99.90
11532;DHT22;5822;51.000;5.874;2023-06-10T05:10:31;20.50;99.90
11532;DHT22;5822;51.000;5.874;2023-06-10T05:12:58;20.60;99.90
11532;DHT22;5822;51.000;5.874;2023-06-10T05:15:24;20.60;99.90
11532;DHT22;5822;51.000;5.874;2023-06-10T05:17:49;20.60;99.90
11532;DHT22;5822;51.000;5.874;2023-06-10T05:20:15;20.60;99.90
11532;DHT22;5822;51.000;5.874;2023-06-10T05:22:41;20.60;99.90
11532;DHT22;5822;51.000;5.874;2023-06-10T05:25:07;20.60;99.90
11532;DHT22;5822;51.000;5.874;2023-06-10T05:27:33;20.70;99.90
11532;DHT22;5822;51.000;5.874;2023-06-10T05:29:58;20.70;99.90
11532;DHT22;5822;51.000;5.874;2023-06-10T05:32:24;20.70;99.90
11532;DHT22;5822;51.000;5.874;2023-06-10T05:34:50;20.70;99.90
11532;DHT22;5822;51.000;5.874;2023-06-10T05:37:16;20.70;99.90
11532;DHT22;5822;51.000;5.874;2023-06-10T05:39:41;20.80;99.90
11532;DHT22;5822;51.000;5.874;2023-06-10T05:42:10;20.80;99.90
11532;DHT22;5822;51.000;5.874;2023-06-10T05:44:36;20.80;99.90
11532;DHT22;5822;51.000;5.874;2023-06-10T05:47:02;20.80;99.90
11532;DHT22;5822;51.000;5.874;2023-06-10T05:49:28;20.80;99.90
11532;DHT22;5822;51.000;5.874;2023-06-10T05:51:54;20.90;99.90
11532;DHT22;5822;51.000;5.874;2023-06-10T05:54:21;20.90;99.90
11532;DHT22;5822;51.000;5.874;2023-06-10T05:56:47;20.90;99.90
11532;DHT22;5822;51.000;5.874;2023-06-10T05:59:12;20.90;99.90
11532;DHT22;5822;51.000;5.874;2023-06-10T06:01:38;20.90;99.90
11532;DHT22;5822;51.000;5.874;2023-06-10T06:04:04;20.90;99.90
11532;DHT22;5822;51.000;5.874;2023-06-10T06:06:30;21.00;99.90
11532;DHT22;5822;51.000;5.874;2023-06-10T06:08:56;21.00;99.90
11532;DHT22;5822;51.000;5.874;2023-06-10T06:11:21;21.00;99.90
11532;DHT22;5822;51.000;5.874;2023-06-10T06:13:47;21.00;99.90
11532;DHT22;5822;51.000;5.874;2023-06-10T06:16:13;21.00;99.90
11532;DHT22;5822;51.000;5.874;2023-06-10T06:18:39;21.00;99.90
11532;DHT22;5822;51.000;5.874;2023-06-10T06:21:05;21.00;99.90
11532;DHT22;5822;51.000;5.874;2023-06-10T06:23:30;21.10;99.90
11532;DHT22;5822;51.000;5.874;2023-06-10T06:25:56;21.00;99.90
11532;DHT22;5822;51.000;5.874;2023-06-10T06:28:22;21.00;99.90
11532;DHT22;5822;51.000;5.874;2023-06-10T06:30:48;21.00;99.90
11532;DHT22;5822;51.000;5.874;2023-06-10T06:33:13;21.00;99.90
11532;DHT22;5822;51.000;5.874;2023-06-10T06:35:39;21.00;99.90
11532;DHT22;5822;51.000;5.874;2023-06-10T06:38:05;21.00;99.90
11532;DHT22;5822;51.000;5.874;2023-06-10T06:40:31;21.00;99.90
11532;DHT22;5822;51.000;5.874;2023-06-10T06:42:57;21.10;99.90
11532;DHT22;5822;51.000;5.874;2023-06-10T06:45:22;21.10;99.90
11532;DHT22;5822;51.000;5.874;2023-06-10T06:47:48;21.10;99.90
11532;DHT22;5822;51.000;5.874;2023-06-10T06:50:13;21.10;99.90
11532;DHT22;5822;51.000;5.874;2023-06-10T06:52:39;21.10;99.90
11532;DHT22;5822;51.000;5.874;2023-06-10T06:55:05;21.10;99.90
11532;DHT22;5822;51.000;5.874;2023-06-10T06:57:31;21.10;99.90
11532;DHT22;5822;51.000;5.874;2023-06-10T06:59:57;21.10;99.90
11532;DHT22;5822;51.000;5.874;2023-06-10T07:02:22;21.10;99.90
11532;DHT22;5822;51.000;5.874;2023-06-10T07:04:49;21.10;99.90
11532;DHT22;5822;51.000;5.874;2023-06-10T07:07:15;21.10;99.90
11532;DHT22;5822;51.000;5.874;2023-06-10T07:09:41;21.10;99.90
11532;DHT22;5822;51.000;5.874;2023-06-10T07:12:07;21.10;99.90
11532;DHT22;5822;51.000;5.874;2023-06-10T07:14:33;21.10;99.90
11532;DHT22;5822;51.000;5.874;2023-06-10T07:16:58;21.10;99.90
11532;DHT22;5822;51.000;5.874;2023-06-10T07:19:24;21.10;99.90
11532;DHT22;5822;51.000;5.874;2023-06-10T07:21:50;21.10;99.90
11532;DHT22;5822;51.000;5.874;2023-06-10T07:24:16;21.10;99.90
11532;DHT22;5822;51.000;5.874;2023-06-10T07:26:41;21.10;99.90
11532;DHT22;5822;51.000;5.874;2023-06-10T07:29:07;21.10;99.90
11532;DHT22;5822;51.000;5.874;2023-06-10T07:31:32;21.10;99.90
11532;DHT22;5822;51.000;5.874;2023-06-10T07:36:33;21.10;99.90
11532;DHT22;5822;51.000;5.874;2023-06-10T07:38:59;21.00;99.90
11532;DHT22;5822;51.000;5.874;2023-06-10T07:41:25;21.00;99.90
11532;DHT22;5822;51.000;5.874;2023-06-10T07:43:52;21.00;99.90
11532;DHT22;5822;51.000;5.874;2023-06-10T07:46:20;21.00;99.90
11532;DHT22;5822;51.000;5.874;2023-06-10T07:48:47;21.00;99.90
11532;DHT22;5822;51.000;5.874;2023-06-10T07:51:12;21.10;99.90
11532;DHT22;5822;51.000;5.874;2023-06-10T07:53:38;21.10;99.90
11532;DHT22;5822;51.000;5.874;2023-06-10T07:56:04;21.10;99.90
11532;DHT22;5822;51.000;5.874;2023-06-10T07:58:29;21.10;99.90
11532;DHT22;5822;51.000;5.874;2023-06-10T08:00:55;21.10;99.90
11532;DHT22;5822;51.000;5.874;2023-06-10T08:03:21;21.10;99.90
11532;DHT22;5822;51.000;5.874;2023-06-10T08:05:47;21.10;99.90
11532;DHT22;5822;51.000;5.874;2023-06-10T08:08:13;21.10;99.90
11532;DHT22;5822;51.000;5.874;2023-06-10T08:10:38;21.10;99.90
11532;DHT22;5822;51.000;5.874;2023-06-10T08:13:04;21.10;99.90
11532;DHT22;5822;51.000;5.874;2023-06-10T08:15:30;21.10;99.90
11532;DHT22;5822;51.000;5.874;2023-06-10T08:17:55;21.10;99.90
11532;DHT22;5822;51.000;5.874;2023-06-10T08:20:22;21.10;99.90
11532;DHT22;5822;51.000;5.874;2023-06-10T08:22:48;21.10;99.90
11532;DHT22;5822;51.000;5.874;2023-06-10T08:25:13;21.10;99.90
11532;DHT22;5822;51.000;5.874;2023-06-10T08:27:39;21.10;99.90
11532;DHT22;5822;51.000;5.874;2023-06-10T08:30:05;21.10;99.90
11532;DHT22;5822;51.000;5.874;2023-06-10T08:32:31;21.10;99.90
11532;DHT22;5822;51.000;5.874;2023-06-10T08:34:57;21.10;99.90
11532;DHT22;5822;51.000;5.874;2023-06-10T08:37:22;21.10;99.90
11532;DHT22;5822;51.000;5.874;2023-06-10T08:39:48;21.10;99.90
11532;DHT22;5822;51.000;5.874;2023-06-10T08:42:40;21.10;99.90
11532;DHT22;5822;51.000;5.874;2023-06-10T08:45:12;21.10;99.90
11532;DHT22;5822;51.000;5.874;2023-06-10T08:47:45;21.10;99.90
11532;DHT22;5822;51.000;5.874;2023-06-10T08:50:12;21.10;99.90
11532;DHT22;5822;51.000;5.874;2023-06-10T08:52:38;21.10;99.90
11532;DHT22;5822;51.000;5.874;2023-06-10T08:55:18;21.10;99.90
11532;DHT22;5822;51.000;5.874;2023-06-10T08:57:51;21.10;99.90
11532;DHT22;5822;51.000;5.874;2023-06-10T09:00:18;21.20;99.90
11532;DHT22;5822;51.000;5.874;2023-06-10T09:02:44;21.20;99.90
11532;DHT22;5822;51.000;5.874;2023-06-10T09:05:11;21.10;99.90
11532;DHT22;5822;51.000;5.874;2023-06-10T09:07:37;21.10;99.90
11532;DHT22;5822;51.000;5.874;2023-06-10T09:10:04;21.10;99.90
11532;DHT22;5822;51.000;5.874;2023-06-10T09:12:35;21.10;99.90
11532;DHT22;5822;51.000;5.874;2023-06-10T09:15:01;21.10;99.90
11532;DHT22;5822;51.000;5.874;2023-06-10T09:17:28;21.10;99.90
11532;DHT22;5822;51.000;5.874;2023-06-10T09:19:54;21.10;99.90
11532;DHT22;5822;51.000;5.874;2023-06-10T09:22:22;21.10;99.90
11532;DHT22;5822;51.000;5.874;2023-06-10T09:24:48;21.20;99.90
11532;DHT22;5822;51.000;5.874;2023-06-10T09:27:13;21.20;99.90
11532;DHT22;5822;51.000;5.874;2023-06-10T09:32:12;21.20;99.90
11532;DHT22;5822;51.000;5.874;2023-06-10T09:34:38;21.20;99.90
11532;DHT22;5822;51.000;5.874;2023-06-10T09:37:05;21.10;99.90
11532;DHT22;5822;51.000;5.874;2023-06-10T09:39:31;21.10;99.90
11532;DHT22;5822;51.000;5.874;2023-06-10T09:41:56;21.10;99.90
11532;DHT22;5822;51.000;5.874;2023-06-10T09:44:23;21.20;99.90
11532;DHT22;5822;51.000;5.874;2023-06-10T09:46:50;21.20;99.90
11532;DHT22;5822;51.000;5.874;2023-06-10T09:49:17;21.30;99.90
11532;DHT22;5822;51.000;5.874;2023-06-10T09:51:53;21.30;99.90
11532;DHT22;5822;51.000;5.874;2023-06-10T09:54:20;21.30;99.90
11532;DHT22;5822;51.000;5.874;2023-06-10T09:56:51;21.30;99.90
11532;DHT22;5822;51.000;5.874;2023-06-10T09:59:28;21.30;99.90
11532;DHT22;5822;51.000;5.874;2023-06-10T10:01:55;21.30;99.90
11532;DHT22;5822;51.000;5.874;2023-06-10T10:04:25;21.30;99.90
11532;DHT22;5822;51.000;5.874;2023-06-10T10:06:51;21.30;99.90
11532;DHT22;5822;51.000;5.874;2023-06-10T10:09:16;21.30;99.90
11532;DHT22;5822;51.000;5.874;2023-06-10T10:11:43;21.30;99.90
11532;DHT22;5822;51.000;5.874;2023-06-10T10:14:10;21.30;99.90
11532;DHT22;5822;51.000;5.874;2023-06-10T10:16:37;21.30;99.90
11532;DHT22;5822;51.000;5.874;2023-06-10T10:19:10;21.30;99.90
11532;DHT22;5822;51.000;5.874;2023-06-10T10:21:44;21.30;99.90
11532;DHT22;5822;51.000;5.874;2023-06-10T10:24:20;21.30;99.90
11532;DHT22;5822;51.000;5.874;2023-06-10T10:26:48;21.30;99.90
11532;DHT22;5822;51.000;5.874;2023-06-10T10:29:29;21.30;99.90
11532;DHT22;5822;51.000;5.874;2023-06-10T10:31:56;21.20;99.90
11532;DHT22;5822;51.000;5.874;2023-06-10T10:37:13;21.30;99.90
11532;DHT22;5822;51.000;5.874;2023-06-10T10:39:39;21.30;99.90
11532;DHT22;5822;51.000;5.874;2023-06-10T10:42:06;21.30;99.90
11532;DHT22;5822;51.000;5.874;2023-06-10T10:44:35;21.30;99.90
11532;DHT22;5822;51.000;5.874;2023-06-10T10:47:03;21.40;99.90
11532;DHT22;5822;51.000;5.874;2023-06-10T10:49:30;21.40;99.90
11532;DHT22;5822;51.000;5.874;2023-06-10T10:51:58;21.40;99.90
11532;DHT22;5822;51.000;5.874;2023-06-10T10:54:36;21.40;99.90
11532;DHT22;5822;51.000;5.874;2023-06-10T10:59:52;21.30;99.90
11532;DHT22;5822;51.000;5.874;2023-06-10T11:02:37;21.30;99.90
11532;DHT22;5822;51.000;5.874;2023-06-10T11:05:07;21.30;99.90
11532;DHT22;5822;51.000;5.874;2023-06-10T11:07:34;21.30;99.90
11532;DHT22;5822;51.000;5.874;2023-06-10T11:15:12;21.30;99.90
11532;DHT22;5822;51.000;5.874;2023-06-10T11:20:55;21.30;99.90
11532;DHT22;5822;51.000;5.874;2023-06-10T11:28:35;21.50;99.90
11532;DHT22;5822;51.000;5.874;2023-06-10T11:31:01;21.40;99.90
11532;DHT22;5822;51.000;5.874;2023-06-10T11:33:27;21.40;99.90
11532;DHT22;5822;51.000;5.874;2023-06-10T11:35:53;21.40;99.90
11532;DHT22;5822;51.000;5.874;2023-06-10T11:38:19;21.40;99.90
11532;DHT22;5822;51.000;5.874;2023-06-10T11:40:51;21.40;99.90
11532;DHT22;5822;51.000;5.874;2023-06-10T11:43:17;21.40;99.90
11532;DHT22;5822;51.000;5.874;2023-06-10T11:45:43;21.40;99.90
11532;DHT22;5822;51.000;5.874;2023-06-10T11:48:10;21.40;99.90
11532;DHT22;5822;51.000;5.874;2023-06-10T11:50:36;21.30;99.90
11532;DHT22;5822;51.000;5.874;2023-06-10T11:53:03;21.30;99.90
11532;DHT22;5822;51.000;5.874;2023-06-10T11:55:48;21.30;99.90
11532;DHT22;5822;51.000;5.874;2023-06-10T11:58:19;21.30;99.90
11532;DHT22;5822;51.000;5.874;2023-06-10T12:00:50;21.30;99.90
11532;DHT22;5822;51.000;5.874;2023-06-10T12:03:17;21.30;99.90
11532;DHT22;5822;51.000;5.874;2023-06-10T12:06:04;21.30;99.90
11532;DHT22;5822;51.000;5.874;2023-06-10T12:08:30;21.30;99.90
11532;DHT22;5822;51.000;5.874;2023-06-10T12:10:57;21.30;99.90
11532;DHT22;5822;51.000;5.874;2023-06-10T12:13:27;21.30;99.90
11532;DHT22;5822;51.000;5.874;2023-06-10T12:15:52;21.30;99.90
11532;DHT22;5822;51.000;5.874;2023-06-10T12:18:19;21.30;99.90
11532;DHT22;5822;51.000;5.874;2023-06-10T12:20:45;21.40;99.90
11532;DHT22;5822;51.000;5.874;2023-06-10T12:23:11;21.40;99.90
11532;DHT22;5822;51.000;5.874;2023-06-10T12:25:37;21.40;99.90
11532;DHT22;5822;51.000;5.874;2023-06-10T12:28:04;21.40;99.90
11532;DHT22;5822;51.000;5.874;2023-06-10T12:30:31;21.40;99.90
11532;DHT22;5822;51.000;5.874;2023-06-10T12:32:57;21.40;99.90
11532;DHT22;5822;51.000;5.874;2023-06-10T12:35:24;21.50;99.90
11532;DHT22;5822;51.000;5.874;2023-06-10T12:40:31;21.40;99.90
11532;DHT22;5822;51.000;5.874;2023-06-10T12:42:58;21.40;99.90
11532;DHT22;5822;51.000;5.874;2023-06-10T12:45:42;21.40;99.90
11532;DHT22;5822;51.000;5.874;2023-06-10T12:48:24;21.40;99.90
11532;DHT22;5822;51.000;5.874;2023-06-10T12:50:57;21.40;99.90
11532;DHT22;5822;51.000;5.874;2023-06-10T12:53:24;21.40;99.90
11532;DHT22;5822;51.000;5.874;2023-06-10T12:55:52;21.40;99.90
11532;DHT22;5822;51.000;5.874;2023-06-10T12:58:20;21.50;99.90
11532;DHT22;5822;51.000;5.874;2023-06-10T13:00:45;21.40;99.90
11532;DHT22;5822;51.000;5.874;2023-06-10T13:03:13;21.50;99.90
11532;DHT22;5822;51.000;5.874;2023-06-10T13:05:38;21.50;99.90
11532;DHT22;5822;51.000;5.874;2023-06-10T13:08:05;21.60;99.90
11532;DHT22;5822;51.000;5.874;2023-06-10T13:10:32;21.70;99.90
11532;DHT22;5822;51.000;5.874;2023-06-10T13:12:59;22.20;99.90
11532;DHT22;5822;51.000;5.874;2023-06-10T13:15:25;22.70;99.90
11532;DHT22;5822;51.000;5.874;2023-06-10T13:17:52;23.10;99.90
11532;DHT22;5822;51.000;5.874;2023-06-10T13:20:18;23.50;99.90
11532;DHT22;5822;51.000;5.874;2023-06-10T13:22:44;23.80;99.90
11532;DHT22;5822;51.000;5.874;2023-06-10T13:25:10;23.90;99.90
11532;DHT22;5822;51.000;5.874;2023-06-10T13:27:37;24.10;99.90
11532;DHT22;5822;51.000;5.874;2023-06-10T13:30:08;24.20;99.90
11532;DHT22;5822;51.000;5.874;2023-06-10T13:32:35;24.40;99.90
11532;DHT22;5822;51.000;5.874;2023-06-10T13:35:01;24.50;99.90
11532;DHT22;5822;51.000;5.874;2023-06-10T13:37:27;24.60;99.90
11532;DHT22;5822;51.000;5.874;2023-06-10T13:39:52;24.70;99.90
11532;DHT22;5822;51.000;5.874;2023-06-10T13:42:19;24.70;99.90
11532;DHT22;5822;51.000;5.874;2023-06-10T13:44:45;24.60;99.90
11532;DHT22;5822;51.000;5.874;2023-06-10T13:47:11;24.70;99.90
11532;DHT22;5822;51.000;5.874;2023-06-10T13:49:36;24.60;99.90
11532;DHT22;5822;51.000;5.874;2023-06-10T13:52:03;24.50;99.90
11532;DHT22;5822;51.000;5.874;2023-06-10T13:54:28;24.50;99.90
11532;DHT22;5822;51.000;5.874;2023-06-10T13:56:54;24.50;99.90
11532;DHT22;5822;51.000;5.874;2023-06-10T13:59:20;24.50;99.90
11532;DHT22;5822;51.000;5.874;2023-06-10T14:01:47;24.40;99.90
11532;DHT22;5822;51.000;5.874;2023-06-10T14:04:12;24.30;99.90
11532;DHT22;5822;51.000;5.874;2023-06-10T14:06:38;24.30;99.90
11532;DHT22;5822;51.000;5.874;2023-06-10T14:09:05;24.30;99.90
11532;DHT22;5822;51.000;5.874;2023-06-10T14:11:30;24.30;99.90
11532;DHT22;5822;51.000;5.874;2023-06-10T14:13:56;24.30;99.90
11532;DHT22;5822;51.000;5.874;2023-06-10T14:16:23;24.20;99.90
11532;DHT22;5822;51.000;5.874;2023-06-10T14:18:49;24.10;99.90
11532;DHT22;5822;51.000;5.874;2023-06-10T14:21:16;24.10;99.90
11532;DHT22;5822;51.000;5.874;2023-06-10T14:23:42;24.00;99.90
11532;DHT22;5822;51.000;5.874;2023-06-10T14:26:09;23.90;99.90
11532;DHT22;5822;51.000;5.874;2023-06-10T14:28:35;23.80;99.90
11532;DHT22;5822;51.000;5.874;2023-06-10T14:31:00;23.80;99.90
11532;DHT22;5822;51.000;5.874;2023-06-10T14:33:26;23.70;99.90
11532;DHT22;5822;51.000;5.874;2023-06-10T14:35:52;23.70;99.90
11532;DHT22;5822;51.000;5.874;2023-06-10T14:38:17;23.70;99.90
11532;DHT22;5822;51.000;5.874;2023-06-10T14:40:44;23.70;99.90
11532;DHT22;5822;51.000;5.874;2023-06-10T14:43:09;23.70;99.90
11532;DHT22;5822;51.000;5.874;2023-06-10T14:45:36;23.60;99.90
11532;DHT22;5822;51.000;5.874;2023-06-10T14:48:03;23.60;99.90
11532;DHT22;5822;51.000;5.874;2023-06-10T14:50:29;23.60;99.90
11532;DHT22;5822;51.000;5.874;2023-06-10T14:52:55;23.50;99.90
11532;DHT22;5822;51.000;5.874;2023-06-10T14:55:20;23.40;99.90
11532;DHT22;5822;51.000;5.874;2023-06-10T14:57:48;23.40;99.90
11532;DHT22;5822;51.000;5.874;2023-06-10T15:00:14;23.40;99.90
11532;DHT22;5822;51.000;5.874;2023-06-10T15:02:42;23.40;99.90
11532;DHT22;5822;51.000;5.874;2023-06-10T15:05:08;23.40;99.90
11532;DHT22;5822;51.000;5.874;2023-06-10T15:07:34;23.30;99.90
11532;DHT22;5822;51.000;5.874;2023-06-10T15:09:59;23.30;99.90
11532;DHT22;5822;51.000;5.874;2023-06-10T15:12:25;23.30;99.90
11532;DHT22;5822;51.000;5.874;2023-06-10T15:14:51;23.30;99.90
11532;DHT22;5822;51.000;5.874;2023-06-10T15:17:16;23.30;99.90
11532;DHT22;5822;51.000;5.874;2023-06-10T15:19:42;23.30;99.90
11532;DHT22;5822;51.000;5.874;2023-06-10T15:22:08;23.20;99.90
11532;DHT22;5822;51.000;5.874;2023-06-10T15:24:33;23.20;99.90
11532;DHT22;5822;51.000;5.874;2023-06-10T15:26:59;23.20;99.90
11532;DHT22;5822;51.000;5.874;2023-06-10T15:29:25;23.20;99.90
11532;DHT22;5822;51.000;5.874;2023-06-10T15:31:51;23.20;99.90
11532;DHT22;5822;51.000;5.874;2023-06-10T15:34:16;23.20;99.90
11532;DHT22;5822;51.000;5.874;2023-06-10T15:36:42;23.20;99.90
11532;DHT22;5822;51.000;5.874;2023-06-10T15:39:08;23.10;99.90
11532;DHT22;5822;51.000;5.874;2023-06-10T15:41:34;23.10;99.90
11532;DHT22;5822;51.000;5.874;2023-06-10T15:44:00;23.10;99.90
11532;DHT22;5822;51.000;5.874;2023-06-10T15:46:27;23.00;99.90
11532;DHT22;5822;51.000;5.874;2023-06-10T15:48:53;23.00;99.90
11532;DHT22;5822;51.000;5.874;2023-06-10T15:51:22;23.00;99.90
11532;DHT22;5822;51.000;5.874;2023-06-10T15:53:47;23.00;99.90
11532;DHT22;5822;51.000;5.874;2023-06-10T15:56:14;23.00;99.90
11532;DHT22;5822;51.000;5.874;2023-06-10T15:58:40;23.00;99.90
11532;DHT22;5822;51.000;5.874;2023-06-10T16:01:06;23.00;99.90
11532;DHT22;5822;51.000;5.874;2023-06-10T16:03:32;23.00;99.90
11532;DHT22;5822;51.000;5.874;2023-06-10T16:05:58;23.10;99.90
11532;DHT22;5822;51.000;5.874;2023-06-10T16:08:23;23.10;99.90
11532;DHT22;5822;51.000;5.874;2023-06-10T16:10:49;23.10;99.90
11532;DHT22;5822;51.000;5.874;2023-06-10T16:13:15;23.20;99.90
11532;DHT22;5822;51.000;5.874;2023-06-10T16:15:40;23.20;99.90
11532;DHT22;5822;51.000;5.874;2023-06-10T16:18:06;23.30;99.90